Time;durP1;ratioP1;P1;durP2;ratioP2;P2;SDS_P1;SDS_P2;PMS_P1;PMS_P2;Temp;Humidity;BMP_temperature;BMP_pressure;BME280_temperature;BME280_humidity;BME280_pressure;Samples;Min_cycle;Max_cycle;Signal;HPM_P1;HPM_P2
2023/06/11 00:01:43;;;;;;;;;;;;;;;22.40;59.48;100118.41;7402977;19;2042;-51
2023/06/11 00:04:12;;;;;;;;;;;;;;;22.40;59.41;100113.00;7402135;19;1791;-51
2023/06/11 00:06:40;;;;;;;;;;;;;;;22.50;59.29;100112.81;7402461;19;1463;-50
2023/06/11 00:09:08;;;;;;;;;;;;;;;22.44;59.29;100117.91;7401115;19;1360;-51
2023/06/11 00:11:41;;;;;;;;;;;;;;;22.49;59.19;100109.28;7402527;19;1964;-51
2023/06/11 00:14:10;;;;;;;;;;;;;;;22.51;59.23;100109.09;7402070;19;1846;-51
2023/06/11 00:16:40;;;;;;;;;;;;;;;22.46;59.19;100109.63;7404055;19;1006;-52
2023/06/11 00:19:09;;;;;;;;;;;;;;;22.44;59.04;100104.44;7403370;19;995;-51
2023/06/11 00:21:40;;;;;;;;;;;;;;;22.40;58.96;100102.22;7402269;19;1931;-51
2023/06/11 00:24:09;;;;;;;;;;;;;;;22.41;59.05;100106.63;7399011;19;1963;-51
2023/06/11 00:26:40;;;;;;;;;;;;;;;22.43;58.78;100110.81;7402098;19;1806;-52
2023/06/11 00:29:08;;;;;;;;;;;;;;;22.42;58.92;100105.59;7401786;19;1300;-51
2023/06/11 00:31:37;;;;;;;;;;;;;;;22.39;58.91;100114.03;7400942;19;1386;-51
2023/06/11 00:34:08;;;;;;;;;;;;;;;22.37;59.23;100124.16;7396797;19;1885;-51
2023/06/11 00:36:36;;;;;;;;;;;;;;;22.33;59.43;100122.81;7402627;19;1711;-51
2023/06/11 00:39:05;;;;;;;;;;;;;;;22.30;59.32;100133.91;7401827;19;1755;-51
2023/06/11 00:41:34;;;;;;;;;;;;;;;22.29;59.37;100129.56;7401492;19;1797;-51
2023/06/11 00:44:06;;;;;;;;;;;;;;;22.30;59.04;100117.75;7401675;19;1391;-51
2023/06/11 00:46:37;;;;;;;;;;;;;;;22.20;59.46;100129.56;7402730;19;1031;-51
2023/06/11 00:49:06;;;;;;;;;;;;;;;22.18;59.55;100128.88;7401970;19;1506;-51
2023/06/11 00:51:34;;;;;;;;;;;;;;;22.19;59.44;100138.63;7401692;19;1601;-51
2023/06/11 00:54:02;;;;;;;;;;;;;;;22.28;59.24;100128.69;7400307;19;1507;-51
2023/06/11 00:56:31;;;;;;;;;;;;;;;22.22;59.52;100138.31;7401175;19;1316;-51
2023/06/11 00:58:59;;;;;;;;;;;;;;;22.19;59.72;100146.72;7400555;19;1396;-51
2023/06/11 01:01:35;;;;;;;;;;;;;;;22.23;59.42;100139.13;7399570;19;1599;-52
2023/06/11 01:04:07;;;;;;;;;;;;;;;22.18;59.48;100146.88;7400024;19;1606;-51
2023/06/11 01:06:36;;;;;;;;;;;;;;;22.20;59.31;100156.47;7400054;19;1232;-51
2023/06/11 01:09:04;;;;;;;;;;;;;;;22.14;59.59;100157.13;7400365;19;1230;-51
2023/06/11 01:11:34;;;;;;;;;;;;;;;22.19;59.72;100186.28;7400402;19;1403;-51
2023/06/11 01:14:04;;;;;;;;;;;;;;;22.22;59.49;100167.94;7401925;19;961;-50
2023/06/11 01:16:37;;;;;;;;;;;;;;;22.18;59.32;100160.34;7398861;19;1870;-51
2023/06/11 01:19:10;;;;;;;;;;;;;;;22.15;59.59;100172.31;7400467;19;1871;-51
2023/06/11 01:21:41;;;;;;;;;;;;;;;22.19;59.39;100162.88;7400307;19;1837;-51
2023/06/11 01:24:18;;;;;;;;;;;;;;;22.31;59.18;100168.78;7399441;19;1965;-51
2023/06/11 01:26:52;;;;;;;;;;;;;;;22.30;59.31;100166.25;7399943;19;2089;-51
2023/06/11 01:29:24;;;;;;;;;;;;;;;22.23;59.29;100161.50;7400824;19;1470;-51
2023/06/11 01:31:53;;;;;;;;;;;;;;;22.19;59.34;100176.34;7399621;19;1710;-51
2023/06/11 01:34:21;;;;;;;;;;;;;;;22.24;59.13;100165.06;7398618;19;2027;-50
2023/06/11 01:36:49;;;;;;;;;;;;;;;22.18;59.58;100169.28;7398391;19;1703;-50
2023/06/11 01:39:19;;;;;;;;;;;;;;;22.14;59.46;100178.69;7399525;19;1210;-51
2023/06/11 01:41:47;;;;;;;;;;;;;;;22.18;59.76;100190.81;7399363;19;1663;-50
2023/06/11 01:44:16;;;;;;;;;;;;;;;22.15;59.68;100179.53;7398743;19;1194;-51
2023/06/11 01:46:46;;;;;;;;;;;;;;;22.12;59.87;100178.00;7396984;19;1177;-51
2023/06/11 01:49:15;;;;;;;;;;;;;;;22.07;59.54;100176.88;7398635;19;1064;-51
2023/06/11 01:51:43;;;;;;;;;;;;;;;22.12;59.58;100180.72;7399100;19;1609;-51
2023/06/11 01:54:11;;;;;;;;;;;;;;;22.15;59.42;100174.16;7398366;19;1289;-50
2023/06/11 01:56:40;;;;;;;;;;;;;;;22.12;59.52;100180.72;7396901;19;1853;-51
2023/06/11 01:59:09;;;;;;;;;;;;;;;22.14;59.54;100184.06;7398354;19;1396;-51
2023/06/11 02:01:37;;;;;;;;;;;;;;;22.05;59.69;100185.13;7398336;19;1607;-50
2023/06/11 02:04:08;;;;;;;;;;;;;;;22.10;59.75;100182.72;7398577;19;1494;-50
2023/06/11 02:06:36;;;;;;;;;;;;;;;22.12;59.64;100196.03;7398809;19;1027;-51
2023/06/11 02:09:04;;;;;;;;;;;;;;;22.09;59.48;100177.53;7397783;19;1978;-51
2023/06/11 02:11:33;;;;;;;;;;;;;;;22.08;59.66;100173.16;7398947;19;1797;-51
2023/06/11 02:14:01;;;;;;;;;;;;;;;22.14;59.28;100181.38;7397534;19;1384;-51
2023/06/11 02:16:29;;;;;;;;;;;;;;;22.07;59.56;100193.84;7395795;19;1972;-51
2023/06/11 02:18:57;;;;;;;;;;;;;;;22.15;59.38;100183.06;7397754;19;1780;-50
2023/06/11 02:21:28;;;;;;;;;;;;;;;22.21;59.12;100190.47;7397193;19;1818;-51
2023/06/11 02:23:57;;;;;;;;;;;;;;;22.14;59.21;100188.63;7398048;19;1784;-49
2023/06/11 02:26:26;;;;;;;;;;;;;;;22.17;59.14;100182.91;7399112;19;1001;-50
2023/06/11 02:28:54;;;;;;;;;;;;;;;22.10;59.23;100188.13;7396950;19;1945;-50
2023/06/11 02:31:23;;;;;;;;;;;;;;;22.04;59.45;100204.94;7397408;19;1610;-50
2023/06/11 02:33:51;;;;;;;;;;;;;;;21.93;59.58;100186.47;7396637;19;1609;-51
2023/06/11 02:36:19;;;;;;;;;;;;;;;22.05;59.35;100206.66;7396613;19;1857;-50
2023/06/11 02:38:50;;;;;;;;;;;;;;;22.12;59.43;100206.81;7397595;19;1974;-50
2023/06/11 02:41:18;;;;;;;;;;;;;;;22.05;59.69;100212.88;7396566;19;1857;-50
2023/06/11 02:43:47;;;;;;;;;;;;;;;22.06;59.35;100219.09;7397448;19;1276;-50
2023/06/11 02:46:15;;;;;;;;;;;;;;;22.08;59.56;100200.91;7396779;19;1465;-51
2023/06/11 02:48:43;;;;;;;;;;;;;;;22.05;59.57;100201.25;7396929;19;1551;-51
2023/06/11 02:51:11;;;;;;;;;;;;;;;22.00;59.55;100190.16;7395792;19;1608;-51
2023/06/11 02:53:40;;;;;;;;;;;;;;;22.07;59.47;100226.16;7395691;19;1952;-51
2023/06/11 02:56:11;;;;;;;;;;;;;;;22.11;59.31;100224.81;7395350;19;1874;-51
2023/06/11 02:58:39;;;;;;;;;;;;;;;22.09;59.45;100240.31;7395861;19;1595;-50
2023/06/11 03:01:07;;;;;;;;;;;;;;;22.07;59.22;100247.72;7397741;19;1814;-50
2023/06/11 03:03:36;;;;;;;;;;;;;;;22.07;59.44;100242.31;7398148;19;932;-51
2023/06/11 03:06:04;;;;;;;;;;;;;;;22.11;59.55;100232.91;7396087;19;1507;-51
2023/06/11 03:08:32;;;;;;;;;;;;;;;22.13;59.29;100236.25;7397382;19;1854;-51
2023/06/11 03:11:00;;;;;;;;;;;;;;;22.08;59.60;100249.38;7396636;19;1460;-51
2023/06/11 03:13:31;;;;;;;;;;;;;;;22.19;59.33;100246.34;7396808;19;1359;-50
2023/06/11 03:15:59;;;;;;;;;;;;;;;22.11;59.59;100248.22;7395723;19;1845;-51
2023/06/11 03:18:28;;;;;;;;;;;;;;;22.08;59.84;100237.78;7395891;19;1825;-51
2023/06/11 03:20:56;;;;;;;;;;;;;;;22.05;60.02;100245.19;7395558;19;2100;-51
2023/06/11 03:23:24;;;;;;;;;;;;;;;22.07;59.96;100247.72;7395036;19;1352;-51
2023/06/11 03:25:53;;;;;;;;;;;;;;;22.11;59.62;100253.59;7393039;19;1498;-50
2023/06/11 03:28:21;;;;;;;;;;;;;;;22.12;59.57;100261.50;7396257;19;1185;-51
2023/06/11 03:30:52;;;;;;;;;;;;;;;22.10;59.47;100257.28;7396573;19;1055;-50
2023/06/11 03:33:20;;;;;;;;;;;;;;;22.13;59.36;100243.50;7395928;19;1885;-51
2023/06/11 03:35:48;;;;;;;;;;;;;;;22.13;59.45;100238.97;7395209;19;1854;-51
2023/06/11 03:38:17;;;;;;;;;;;;;;;22.11;59.40;100259.81;7395919;19;2155;-50
2023/06/11 03:40:45;;;;;;;;;;;;;;;22.16;59.34;100243.16;7396440;19;1803;-50
2023/06/11 03:43:13;;;;;;;;;;;;;;;22.09;59.34;100250.25;7396041;19;1712;-50
2023/06/11 03:45:41;;;;;;;;;;;;;;;22.14;59.38;100267.56;7395630;19;1454;-51
2023/06/11 03:48:12;;;;;;;;;;;;;;;22.17;59.41;100232.22;7394850;19;1727;-50
2023/06/11 03:50:41;;;;;;;;;;;;;;;22.19;59.24;100243.66;7393866;19;1558;-51
2023/06/11 03:53:09;;;;;;;;;;;;;;;22.21;59.22;100240.81;7396145;19;1490;-50
2023/06/11 03:55:37;;;;;;;;;;;;;;;22.22;59.10;100240.66;7395037;19;1863;-50
2023/06/11 03:58:05;;;;;;;;;;;;;;;22.21;59.57;100249.72;7391199;19;1214;-51
2023/06/11 04:00:34;;;;;;;;;;;;;;;22.21;59.47;100238.13;7395303;19;1858;-51
2023/06/11 04:03:02;;;;;;;;;;;;;;;22.21;59.23;100238.13;7394478;19;1592;-51
2023/06/11 04:05:36;;;;;;;;;;;;;;;22.23;59.39;100233.41;7393610;19;1264;-51
2023/06/11 04:08:05;;;;;;;;;;;;;;;22.37;58.95;100237.28;7393844;19;1529;-50
2023/06/11 04:10:34;;;;;;;;;;;;;;;22.33;58.89;100231.41;7401624;19;1180;-50
2023/06/11 04:13:02;;;;;;;;;;;;;;;22.44;58.81;100246.34;7400496;19;1245;-51
2023/06/11 04:15:30;;;;;;;;;;;;;;;22.52;58.71;100235.59;7401145;19;1857;-50
2023/06/11 04:17:58;;;;;;;;;;;;;;;22.57;58.83;100243.97;7401051;19;1622;-50
2023/06/11 04:20:27;;;;;;;;;;;;;;;22.61;58.46;100228.31;7401230;19;1461;-51
2023/06/11 04:22:59;;;;;;;;;;;;;;;22.58;58.83;100231.34;7401389;19;1540;-50
2023/06/11 04:25:27;;;;;;;;;;;;;;;22.64;58.82;100236.91;7398297;19;1281;-51
2023/06/11 04:27:56;;;;;;;;;;;;;;;22.64;58.91;100244.97;7400728;19;1650;-51
2023/06/11 04:30:24;;;;;;;;;;;;;;;22.72;59.24;100249.50;7401986;19;1028;-51
2023/06/11 04:32:55;;;;;;;;;;;;;;;22.71;59.02;100247.81;7401539;19;1516;-51
2023/06/11 04:35:24;;;;;;;;;;;;;;;22.75;59.01;100245.63;7401308;19;1855;-51
2023/06/11 04:37:53;;;;;;;;;;;;;;;22.80;59.24;100254.00;7399306;19;1520;-51
2023/06/11 04:40:25;;;;;;;;;;;;;;;22.76;59.25;100236.50;7400846;19;1207;-51
2023/06/11 04:42:54;;;;;;;;;;;;;;;22.73;59.36;100253.03;7401380;19;1546;-52
2023/06/11 04:45:22;;;;;;;;;;;;;;;22.76;59.45;100255.38;7401202;19;1250;-51
2023/06/11 04:47:52;;;;;;;;;;;;;;;22.72;59.39;100252.22;7400095;19;1269;-51
2023/06/11 04:50:21;;;;;;;;;;;;;;;22.73;59.64;100274.59;7400191;19;1429;-51
2023/06/11 04:52:51;;;;;;;;;;;;;;;22.85;59.48;100270.53;7400067;19;1289;-51
2023/06/11 04:55:21;;;;;;;;;;;;;;;22.83;59.58;100259.06;7398313;19;1596;-50
2023/06/11 04:57:54;;;;;;;;;;;;;;;22.85;59.62;100254.34;7397541;19;1841;-50
2023/06/11 05:00:22;;;;;;;;;;;;;;;22.75;60.00;100251.84;7401258;19;942;-52
2023/06/11 05:02:51;;;;;;;;;;;;;;;22.83;59.78;100275.25;7399454;19;1643;-50
2023/06/11 05:05:20;;;;;;;;;;;;;;;22.77;59.78;100262.47;7399693;19;1605;-51
2023/06/11 05:07:48;;;;;;;;;;;;;;;22.81;59.75;100263.81;7399564;19;1650;-51
2023/06/11 05:10:18;;;;;;;;;;;;;;;22.89;59.60;100282.66;7400508;19;1498;-50
2023/06/11 05:12:46;;;;;;;;;;;;;;;22.91;59.64;100277.09;7400212;19;1524;-51
2023/06/11 05:15:17;;;;;;;;;;;;;;;22.96;59.81;100290.88;7399983;19;1262;-50
2023/06/11 05:17:45;;;;;;;;;;;;;;;22.88;59.95;100283.69;7396494;19;1858;-50
2023/06/11 05:20:14;;;;;;;;;;;;;;;23.07;59.74;100297.78;7398287;19;1288;-50
2023/06/11 05:22:42;;;;;;;;;;;;;;;23.09;59.57;100284.97;7399457;19;1098;-50
2023/06/11 05:25:15;;;;;;;;;;;;;;;23.06;59.38;100279.91;7397496;19;1305;-51
2023/06/11 05:27:43;;;;;;;;;;;;;;;23.10;59.38;100292.91;7401042;19;1533;-51
2023/06/11 05:30:12;;;;;;;;;;;;;;;23.11;59.73;100277.56;7401451;19;1003;-51
2023/06/11 05:32:43;;;;;;;;;;;;;;;23.14;59.73;100282.59;7398167;19;1526;-51
2023/06/11 05:35:11;;;;;;;;;;;;;;;23.16;59.50;100276.03;7400164;19;1798;-51
2023/06/11 05:37:40;;;;;;;;;;;;;;;23.17;59.66;100282.25;7396770;19;1849;-50
2023/06/11 05:40:09;;;;;;;;;;;;;;;22.87;60.70;100287.38;7399037;19;1735;-51
2023/06/11 05:42:38;;;;;;;;;;;;;;;22.91;60.66;100283.31;7397668;19;1368;-49
2023/06/11 05:45:06;;;;;;;;;;;;;;;23.17;59.98;100277.69;7399817;19;1672;-47
2023/06/11 05:47:35;;;;;;;;;;;;;;;23.12;60.17;100280.09;7399213;19;1867;-48
2023/06/11 05:50:06;;;;;;;;;;;;;;;23.18;60.01;100282.06;7398612;19;1576;-49
2023/06/11 05:52:34;;;;;;;;;;;;;;;23.38;59.17;100284.34;7399196;19;1833;-50
2023/06/11 05:55:02;;;;;;;;;;;;;;;23.23;59.97;100281.53;7399767;19;1227;-50
2023/06/11 05:57:31;;;;;;;;;;;;;;;23.20;60.21;100277.34;7391692;19;1853;-51
2023/06/11 05:59:59;;;;;;;;;;;;;;;23.16;60.26;100273.31;7392309;19;1415;-51
2023/06/11 06:02:27;;;;;;;;;;;;;;;23.17;60.24;100268.75;7393813;19;1606;-51
2023/06/11 06:04:56;;;;;;;;;;;;;;;23.36;59.99;100286.41;7389896;19;1593;-51
2023/06/11 06:07:27;;;;;;;;;;;;;;;23.49;59.27;100275.00;7377880;19;1680;-53
2023/06/11 06:09:55;;;;;;;;;;;;;;;23.34;59.98;100283.03;7391989;19;1251;-50
2023/06/11 06:12:24;;;;;;;;;;;;;;;23.26;60.14;100278.50;7395615;19;1651;-47
2023/06/11 06:14:52;;;;;;;;;;;;;;;23.28;60.43;100294.50;7396337;19;1451;-50
2023/06/11 06:17:20;;;;;;;;;;;;;;;23.40;60.04;100283.16;7393155;19;1866;-51
2023/06/11 06:19:48;;;;;;;;;;;;;;;23.57;59.54;100280.38;7396326;19;1556;-51
2023/06/11 06:22:18;;;;;;;;;;;;;;;23.26;60.54;100275.81;7398177;19;1289;-52
2023/06/11 06:24:49;;;;;;;;;;;;;;;23.21;60.56;100280.88;7396383;19;1604;-51
2023/06/11 06:27:17;;;;;;;;;;;;;;;23.25;60.23;100279.50;7397361;19;1618;-51
2023/06/11 06:29:45;;;;;;;;;;;;;;;23.21;60.48;100268.22;7398568;19;1717;-51
2023/06/11 06:32:14;;;;;;;;;;;;;;;23.18;60.60;100275.84;7395267;19;1312;-50
2023/06/11 06:34:42;;;;;;;;;;;;;;;23.37;59.87;100278.09;7395516;19;1311;-53
2023/06/11 06:37:11;;;;;;;;;;;;;;;23.46;59.29;100276.22;7395705;19;1946;-51
2023/06/11 06:39:40;;;;;;;;;;;;;;;23.33;59.39;100268.69;7396759;19;1273;-50
2023/06/11 06:42:11;;;;;;;;;;;;;;;23.24;59.93;100267.06;7395023;19;1170;-51
2023/06/11 06:44:39;;;;;;;;;;;;;;;23.28;60.32;100271.09;7395781;19;1426;-51
2023/06/11 06:47:08;;;;;;;;;;;;;;;23.41;59.80;100284.00;7394315;19;1538;-50
2023/06/11 06:49:38;;;;;;;;;;;;;;;23.45;59.98;100265.59;7396984;19;2139;-51
2023/06/11 06:52:09;;;;;;;;;;;;;;;23.46;59.89;100270.81;7396523;19;1844;-51
2023/06/11 06:54:37;;;;;;;;;;;;;;;23.50;60.14;100265.91;7394537;19;1209;-51
2023/06/11 06:57:07;;;;;;;;;;;;;;;23.48;60.44;100259.84;7394442;19;1850;-51
2023/06/11 06:59:37;;;;;;;;;;;;;;;23.50;60.68;100271.31;7395785;19;1624;-51
2023/06/11 07:02:06;;;;;;;;;;;;;;;23.38;61.28;100265.47;7393738;19;1416;-51
2023/06/11 07:04:35;;;;;;;;;;;;;;;23.35;61.13;100266.63;7392751;19;1144;-52
2023/06/11 07:07:03;;;;;;;;;;;;;;;23.57;61.00;100274.97;7393719;19;1424;-50
2023/06/11 07:09:32;;;;;;;;;;;;;;;23.53;62.84;100260.16;7395467;19;1449;-49
2023/06/11 07:12:00;;;;;;;;;;;;;;;23.45;63.21;100271.00;7395016;19;1201;-51
2023/06/11 07:14:28;;;;;;;;;;;;;;;23.41;63.24;100279.44;7395674;19;1494;-51
2023/06/11 07:16:59;;;;;;;;;;;;;;;23.34;63.80;100258.75;7394054;19;1857;-50
2023/06/11 07:19:27;;;;;;;;;;;;;;;23.30;63.74;100260.94;7393126;19;1535;-52
2023/06/11 07:21:56;;;;;;;;;;;;;;;23.32;63.81;100253.53;7393437;19;1365;-51
2023/06/11 07:24:24;;;;;;;;;;;;;;;23.33;64.02;100257.06;6363098;19;10000777;-52
2023/06/11 07:26:52;;;;;;;;;;;;;;;23.50;63.10;100265.91;7387788;19;1426;-54
2023/06/11 07:29:21;;;;;;;;;;;;;;;23.45;62.54;100262.91;7387507;19;1399;-54
2023/06/11 07:31:49;;;;;;;;;;;;;;;23.25;63.68;100257.94;7383339;19;1445;-55
2023/06/11 07:34:20;;;;;;;;;;;;;;;23.26;63.45;100256.94;7383090;19;1526;-54
2023/06/11 07:36:48;;;;;;;;;;;;;;;23.50;62.63;100255.94;7379026;19;1849;-54
2023/06/11 07:39:17;;;;;;;;;;;;;;;23.52;62.28;100242.28;7385788;19;1607;-53
2023/06/11 07:41:45;;;;;;;;;;;;;;;23.53;61.86;100263.69;7385541;19;1574;-54
2023/06/11 07:44:13;;;;;;;;;;;;;;;23.51;61.98;100264.88;7389127;19;1883;-53
2023/06/11 07:46:42;;;;;;;;;;;;;;;23.39;62.37;100250.94;7393995;19;1189;-53
2023/06/11 07:49:10;;;;;;;;;;;;;;;23.31;62.17;100246.44;7391792;19;1605;-53
2023/06/11 07:51:42;;;;;;;;;;;;;;;23.29;62.63;100258.44;7392388;19;1563;-53
2023/06/11 07:54:10;;;;;;;;;;;;;;;23.25;62.20;100246.31;7392824;19;1297;-53
2023/06/11 07:56:39;;;;;;;;;;;;;;;23.27;62.22;100250.50;7392229;19;1834;-53
2023/06/11 07:59:07;;;;;;;;;;;;;;;23.41;61.72;100255.13;7389536;19;2490;-53
2023/06/11 08:01:36;;;;;;;;;;;;;;;23.43;61.81;100261.19;7393094;19;1423;-53
2023/06/11 08:04:04;;;;;;;;;;;;;;;23.47;61.12;100253.59;7390044;19;1409;-54
2023/06/11 08:06:33;;;;;;;;;;;;;;;23.61;61.00;100254.69;7391451;19;1388;-54
2023/06/11 08:09:03;;;;;;;;;;;;;;;23.71;60.63;100247.19;7390862;19;1517;-53
2023/06/11 08:11:32;;;;;;;;;;;;;;;23.66;60.51;100254.19;7391213;19;1392;-52
2023/06/11 08:14:00;;;;;;;;;;;;;;;23.70;60.67;100260.91;7392601;19;1130;-53
2023/06/11 08:16:28;;;;;;;;;;;;;;;23.67;60.71;100258.53;7393587;19;1559;-55
2023/06/11 08:18:57;;;;;;;;;;;;;;;23.71;60.45;100251.78;7388534;19;1881;-53
2023/06/11 08:21:25;;;;;;;;;;;;;;;23.57;60.83;100258.78;7392687;19;1549;-53
2023/06/11 08:23:54;;;;;;;;;;;;;;;23.50;61.31;100250.56;7389888;19;2382;-53
2023/06/11 08:26:25;;;;;;;;;;;;;;;23.40;61.42;100245.38;7390483;19;1229;-53
2023/06/11 08:28:53;;;;;;;;;;;;;;;23.47;61.04;100240.09;7391629;19;1189;-52
2023/06/11 08:31:22;;;;;;;;;;;;;;;23.41;61.65;100251.59;7390066;19;1843;-52
2023/06/11 08:33:50;;;;;;;;;;;;;;;23.52;61.98;100239.59;7390835;19;1473;-52
2023/06/11 08:36:19;;;;;;;;;;;;;;;23.58;61.53;100246.97;7390395;19;1810;-53
2023/06/11 08:38:47;;;;;;;;;;;;;;;23.47;61.65;100250.91;7391340;19;1865;-53
2023/06/11 08:41:15;;;;;;;;;;;;;;;23.43;62.04;100238.78;7392874;19;1443;-53
2023/06/11 08:43:46;;;;;;;;;;;;;;;23.47;61.58;100250.06;7392636;19;1564;-53
2023/06/11 08:46:15;;;;;;;;;;;;;;;23.49;61.53;100237.22;7392511;19;1519;-53
2023/06/11 08:48:44;;;;;;;;;;;;;;;23.50;61.48;100241.63;7387817;19;1979;-53
2023/06/11 08:51:14;;;;;;;;;;;;;;;23.35;61.92;100234.25;7391954;19;1482;-55
2023/06/11 08:53:42;;;;;;;;;;;;;;;23.37;61.52;100239.50;7393115;19;1534;-54
2023/06/11 08:56:10;;;;;;;;;;;;;;;23.25;62.48;100251.69;7389102;19;2027;-54
2023/06/11 08:58:40;;;;;;;;;;;;;;;23.22;62.33;100242.13;7385902;19;1870;-53
2023/06/11 09:01:14;;;;;;;;;;;;;;;23.35;61.54;100233.44;7396784;19;1458;-53
2023/06/11 09:03:42;;;;;;;;;;;;;;;23.19;62.60;100243.28;7396696;19;1534;-53
2023/06/11 09:06:10;;;;;;;;;;;;;;;23.29;62.02;100244.94;7399875;19;2148;-53
2023/06/11 09:08:38;;;;;;;;;;;;;;;23.46;61.26;100243.84;7399142;19;1337;-53
2023/06/11 09:11:07;;;;;;;;;;;;;;;23.49;61.29;100246.16;7399002;19;1422;-54
2023/06/11 09:13:35;;;;;;;;;;;;;;;23.56;60.96;100224.72;7397873;19;1842;-53
2023/06/11 09:16:03;;;;;;;;;;;;;;;23.53;61.48;100238.56;7398487;19;1474;-54
2023/06/11 09:18:34;;;;;;;;;;;;;;;23.60;61.23;100220.63;7397331;19;1853;-52
2023/06/11 09:21:02;;;;;;;;;;;;;;;23.64;61.46;100221.97;7396833;19;2160;-53
2023/06/11 09:23:31;;;;;;;;;;;;;;;23.74;61.56;100225.25;7397335;19;1505;-53
2023/06/11 09:26:00;;;;;;;;;;;;;;;23.61;62.02;100225.84;7396775;19;1328;-53
2023/06/11 09:28:32;;;;;;;;;;;;;;;23.51;62.25;100219.00;7398707;19;1817;-53
2023/06/11 09:31:00;;;;;;;;;;;;;;;23.46;62.63;100221.38;7399343;19;1470;-54
2023/06/11 09:33:29;;;;;;;;;;;;;;;23.29;63.46;100208.00;7398149;19;1372;-53
2023/06/11 09:36:00;;;;;;;;;;;;;;;23.45;62.75;100214.31;7397035;19;1994;-53
2023/06/11 09:38:28;;;;;;;;;;;;;;;23.38;64.00;100208.81;7395967;19;1844;-51
2023/06/11 09:40:58;;;;;;;;;;;;;;;23.51;63.00;100208.22;7396978;19;1524;-55
2023/06/11 09:43:27;;;;;;;;;;;;;;;23.34;63.55;100219.13;7397314;19;1215;-53
2023/06/11 09:45:56;;;;;;;;;;;;;;;23.57;62.65;100210.19;7397650;19;1489;-53
2023/06/11 09:48:25;;;;;;;;;;;;;;;23.58;62.34;100204.63;7397092;19;1619;-53
2023/06/11 09:50:54;;;;;;;;;;;;;;;23.51;63.05;100205.50;7396957;19;1548;-53
2023/06/11 09:53:26;;;;;;;;;;;;;;;23.27;64.40;100225.38;7395710;19;1291;-54
2023/06/11 09:55:54;;;;;;;;;;;;;;;23.49;63.95;100218.34;7396879;19;1548;-54
2023/06/11 09:58:23;;;;;;;;;;;;;;;23.51;63.85;100214.44;7394611;19;1893;-53
2023/06/11 10:00:52;;;;;;;;;;;;;;;23.48;63.58;100212.13;7395383;19;1544;-55
2023/06/11 10:03:21;;;;;;;;;;;;;;;23.46;64.26;100205.19;7396146;19;1605;-55
2023/06/11 10:05:49;;;;;;;;;;;;;;;23.48;66.02;100197.78;7396817;19;1540;-55
2023/06/11 10:08:20;;;;;;;;;;;;;;;23.51;64.42;100197.41;7397096;19;1239;-54
2023/06/11 10:10:56;;;;;;;;;;;;;;;23.62;63.65;100197.84;7397493;19;1552;-53
2023/06/11 10:13:31;;;;;;;;;;;;;;;23.25;66.45;100193.19;7395684;19;1629;-53
2023/06/11 10:16:00;;;;;;;;;;;;;;;23.19;67.46;100212.78;7397160;19;1599;-52
2023/06/11 10:18:30;;;;;;;;;;;;;;;23.23;67.91;100173.63;7394016;19;1859;-53
2023/06/11 10:21:00;;;;;;;;;;;;;;;23.39;67.03;100178.94;7395796;19;1607;-53
2023/06/11 10:23:36;;;;;;;;;;;;;;;23.44;65.98;100175.72;7395253;19;1560;-51
2023/06/11 10:26:07;;;;;;;;;;;;;;;23.33;66.84;100162.63;7396026;19;1496;-53
2023/06/11 10:28:39;;;;;;;;;;;;;;;23.56;66.28;100176.13;7393845;19;1305;-53
2023/06/11 10:31:08;;;;;;;;;;;;;;;23.55;66.46;100161.78;7393946;19;1283;-53
2023/06/11 10:33:40;;;;;;;;;;;;;;;23.56;66.12;100166.19;7381027;19;1272;-55
2023/06/11 10:36:08;;;;;;;;;;;;;;;23.76;65.47;100168.38;7395720;19;1193;-53
2023/06/11 10:38:39;;;;;;;;;;;;;;;23.68;65.98;100166.59;7396379;19;1837;-55
2023/06/11 10:41:10;;;;;;;;;;;;;;;23.60;66.96;100169.34;6368124;19;10000128;-54
2023/06/11 10:43:40;;;;;;;;;;;;;;;23.36;66.99;100157.72;7389494;19;1723;-54
2023/06/11 10:46:12;;;;;;;;;;;;;;;23.32;66.84;100152.88;7390713;19;1464;-55
2023/06/11 10:48:50;;;;;;;;;;;;;;;23.29;66.78;100167.53;7389963;19;1759;-54
2023/06/11 10:51:19;;;;;;;;;;;;;;;23.28;66.91;100155.06;7390351;19;1665;-54
2023/06/11 10:53:56;;;;;;;;;;;;;;;23.26;66.76;100148.16;7388638;19;1819;-54
2023/06/11 10:56:27;;;;;;;;;;;;;;;23.24;66.40;100126.78;7389044;19;1601;-53
2023/06/11 10:58:56;;;;;;;;;;;;;;;23.24;66.57;100164.53;7384859;19;1842;-54
2023/06/11 11:01:25;;;;;;;;;;;;;;;23.40;65.93;100150.09;7389027;19;1616;-56
2023/06/11 11:03:54;;;;;;;;;;;;;;;23.39;65.80;100135.75;7387884;19;1456;-53
2023/06/11 11:06:30;;;;;;;;;;;;;;;23.27;66.67;100129.09;7384897;19;1498;-55
2023/06/11 11:08:59;;;;;;;;;;;;;;;23.37;66.16;100136.97;7389951;19;1456;-53
2023/06/11 11:11:30;;;;;;;;;;;;;;;23.29;66.37;100135.16;7388581;19;1479;-54
2023/06/11 11:14:00;;;;;;;;;;;;;;;23.23;66.22;100139.41;7390011;19;1559;-53
2023/06/11 11:16:28;;;;;;;;;;;;;;;23.18;66.55;100127.50;7389864;19;1629;-54
2023/06/11 11:18:57;;;;;;;;;;;;;;;23.15;66.33;100123.28;7386221;19;1851;-54
2023/06/11 11:21:29;;;;;;;;;;;;;;;23.15;66.12;100123.28;7389556;19;1734;-53
2023/06/11 11:23:57;;;;;;;;;;;;;;;23.16;66.30;100110.66;7388107;19;1479;-53
2023/06/11 11:26:26;;;;;;;;;;;;;;;23.17;66.17;100109.63;7387739;19;1541;-54
2023/06/11 11:28:57;;;;;;;;;;;;;;;23.24;65.88;100116.00;7387831;19;1475;-55
2023/06/11 11:31:25;;;;;;;;;;;;;;;23.19;65.44;100105.72;7389075;19;1583;-53
2023/06/11 11:33:54;;;;;;;;;;;;;;;23.23;65.81;100092.72;7388999;19;1843;-54
2023/06/11 11:36:24;;;;;;;;;;;;;;;23.20;65.91;100099.31;7388282;19;1811;-55
2023/06/11 11:38:53;;;;;;;;;;;;;;;23.20;65.98;100087.69;7387475;19;1845;-55
2023/06/11 11:41:23;;;;;;;;;;;;;;;23.20;65.84;100079.59;7386522;19;2346;-55
2023/06/11 11:43:52;;;;;;;;;;;;;;;23.23;65.67;100090.84;7388258;19;1467;-55
2023/06/11 11:46:24;;;;;;;;;;;;;;;23.21;66.01;100092.06;7388508;19;1475;-55
2023/06/11 11:48:56;;;;;;;;;;;;;;;23.22;65.08;100094.59;7385529;19;2647;-57
2023/06/11 11:51:29;;;;;;;;;;;;;;;23.19;65.42;100083.31;7386263;19;1938;-54
2023/06/11 11:53:57;;;;;;;;;;;;;;;23.18;65.14;100084.34;7387841;19;1787;-54
2023/06/11 11:56:33;;;;;;;;;;;;;;;23.14;64.88;100088.38;7388501;19;1847;-55
2023/06/11 11:59:02;;;;;;;;;;;;;;;23.16;64.85;100078.28;7385642;19;1834;-54
2023/06/11 12:01:37;;;;;;;;;;;;;;;23.13;65.10;100084.03;7388706;19;1736;-54
2023/06/11 12:04:06;;;;;;;;;;;;;;;23.20;64.89;100093.09;7386659;19;1653;-54
2023/06/11 12:06:35;;;;;;;;;;;;;;;23.21;65.37;100089.38;7385953;19;1529;-55
2023/06/11 12:09:04;;;;;;;;;;;;;;;23.22;65.11;100096.44;7387560;19;1590;-54
2023/06/11 12:11:32;;;;;;;;;;;;;;;23.19;65.53;100092.22;7386906;19;1561;-55
2023/06/11 12:14:00;;;;;;;;;;;;;;;23.19;65.40;100091.41;7388609;19;1589;-54
2023/06/11 12:16:29;;;;;;;;;;;;;;;23.16;65.48;100083.69;7386472;19;1565;-55
2023/06/11 12:18:59;;;;;;;;;;;;;;;23.24;65.66;100091.72;7385558;19;1869;-53
2023/06/11 12:21:28;;;;;;;;;;;;;;;23.19;65.55;100097.63;7387134;19;1493;-54
2023/06/11 12:23:56;;;;;;;;;;;;;;;23.19;65.18;100091.41;7385584;19;1836;-53
2023/06/11 12:26:24;;;;;;;;;;;;;;;23.14;65.35;100088.38;7386841;19;1705;-53
2023/06/11 12:28:53;;;;;;;;;;;;;;;23.22;65.26;100099.97;7386258;19;1462;-55
2023/06/11 12:31:21;;;;;;;;;;;;;;;23.17;65.12;100098.84;7393626;19;1482;-54
2023/06/11 12:33:50;;;;;;;;;;;;;;;23.22;65.07;100116.16;7393696;19;1431;-55
2023/06/11 12:36:21;;;;;;;;;;;;;;;23.26;64.89;100118.50;7394498;19;1702;-55
2023/06/11 12:38:49;;;;;;;;;;;;;;;23.18;64.92;100105.91;7394022;19;1855;-55
2023/06/11 12:41:18;;;;;;;;;;;;;;;23.21;64.95;100137.91;7392673;19;2205;-55
2023/06/11 12:43:46;;;;;;;;;;;;;;;23.24;64.13;100132.19;7393755;19;1501;-54
2023/06/11 12:46:15;;;;;;;;;;;;;;;23.36;63.97;100140.69;7394533;19;1644;-55
2023/06/11 12:48:43;;;;;;;;;;;;;;;23.30;63.38;100131.47;7393978;19;1845;-54
2023/06/11 12:51:11;;;;;;;;;;;;;;;23.24;63.86;100110.59;7393637;19;1926;-54
2023/06/11 12:53:42;;;;;;;;;;;;;;;23.30;63.51;100126.06;7393342;19;1859;-54
2023/06/11 12:56:11;;;;;;;;;;;;;;;23.27;63.41;100115.63;7394131;19;1629;-54